sensor_id;sensor_type;location;lat;lon;timestamp;temperature;humidity
44671;DHT22;48397;53.016;-2.260;2022-07-30T00:04:17;17.30;99.90
44671;DHT22;48397;53.016;-2.260;2022-07-30T00:06:45;17.50;99.90
44671;DHT22;48397;53.016;-2.260;2022-07-30T00:09:13;17.40;99.90
44671;DHT22;48397;53.016;-2.260;2022-07-30T00:11:40;17.50;99.90
44671;DHT22;48397;53.016;-2.260;2022-07-30T00:14:09;17.50;99.90
44671;DHT22;48397;53.016;-2.260;2022-07-30T00:16:37;17.50;99.90
44671;DHT22;48397;53.016;-2.260;2022-07-30T00:19:05;17.50;99.90
44671;DHT22;48397;53.016;-2.260;2022-07-30T00:21:34;17.50;99.90
44671;DHT22;48397;53.016;-2.260;2022-07-30T00:24:06;17.50;99.90
44671;DHT22;48397;53.016;-2.260;2022-07-30T00:26:35;17.50;99.90
44671;DHT22;48397;53.016;-2.260;2022-07-30T00:29:03;17.50;99.90
44671;DHT22;48397;53.016;-2.260;2022-07-30T00:33:59;17.50;99.90
44671;DHT22;48397;53.016;-2.260;2022-07-30T00:36:27;18.80;99.90
44671;DHT22;48397;53.016;-2.260;2022-07-30T00:38:55;17.60;99.90
44671;DHT22;48397;53.016;-2.260;2022-07-30T00:41:24;17.60;99.90
44671;DHT22;48397;53.016;-2.260;2022-07-30T00:43:52;17.60;99.90
44671;DHT22;48397;53.016;-2.260;2022-07-30T00:46:20;17.50;99.90
44671;DHT22;48397;53.016;-2.260;2022-07-30T00:48:48;17.50;99.90
44671;DHT22;48397;53.016;-2.260;2022-07-30T00:53:44;17.50;99.90
44671;DHT22;48397;53.016;-2.260;2022-07-30T00:56:13;17.60;99.90
44671;DHT22;48397;53.016;-2.260;2022-07-30T00:58:43;17.60;99.90
44671;DHT22;48397;53.016;-2.260;2022-07-30T01:01:11;17.50;99.90
44671;DHT22;48397;53.016;-2.260;2022-07-30T01:06:07;17.60;99.90
44671;DHT22;48397;53.016;-2.260;2022-07-30T01:08:41;17.60;99.90
44671;DHT22;48397;53.016;-2.260;2022-07-30T01:11:10;17.50;99.90
44671;DHT22;48397;53.016;-2.260;2022-07-30T01:13:42;17.50;99.90
44671;DHT22;48397;53.016;-2.260;2022-07-30T01:18:40;17.40;99.90
44671;DHT22;48397;53.016;-2.260;2022-07-30T01:21:33;17.30;99.90
44671;DHT22;48397;53.016;-2.260;2022-07-30T01:24:29;17.30;99.90
44671;DHT22;48397;53.016;-2.260;2022-07-30T01:27:00;17.30;99.90
44671;DHT22;48397;53.016;-2.260;2022-07-30T01:29:31;17.20;99.90
44671;DHT22;48397;53.016;-2.260;2022-07-30T01:32:03;17.20;99.90
44671;DHT22;48397;53.016;-2.260;2022-07-30T01:34:34;17.20;99.90
44671;DHT22;48397;53.016;-2.260;2022-07-30T01:37:04;17.20;99.90
44671;DHT22;48397;53.016;-2.260;2022-07-30T01:39:36;17.20;99.90
44671;DHT22;48397;53.016;-2.260;2022-07-30T01:42:05;17.10;99.90
44671;DHT22;48397;53.016;-2.260;2022-07-30T01:44:38;17.10;99.90
44671;DHT22;48397;53.016;-2.260;2022-07-30T01:47:10;17.20;99.90
44671;DHT22;48397;53.016;-2.260;2022-07-30T01:49:40;17.20;99.90
44671;DHT22;48397;53.016;-2.260;2022-07-30T01:52:09;17.10;99.90
44671;DHT22;48397;53.016;-2.260;2022-07-30T01:54:38;17.10;99.90
44671;DHT22;48397;53.016;-2.260;2022-07-30T01:57:07;17.10;99.90
44671;DHT22;48397;53.016;-2.260;2022-07-30T01:59:37;17.10;99.90
44671;DHT22;48397;53.016;-2.260;2022-07-30T02:02:11;17.10;99.90
44671;DHT22;48397;53.016;-2.260;2022-07-30T02:04:44;17.10;99.90
44671;DHT22;48397;53.016;-2.260;2022-07-30T02:07:36;17.10;99.90
44671;DHT22;48397;53.016;-2.260;2022-07-30T02:10:51;17.10;99.90
44671;DHT22;48397;53.016;-2.260;2022-07-30T02:13:02;17.10;99.90
44671;DHT22;48397;53.016;-2.260;2022-07-30T02:15:34;17.10;99.90
44671;DHT22;48397;53.016;-2.260;2022-07-30T02:18:22;16.90;99.90
44671;DHT22;48397;53.016;-2.260;2022-07-30T02:21:03;17.00;99.90
44671;DHT22;48397;53.016;-2.260;2022-07-30T02:23:41;17.10;99.90
44671;DHT22;48397;53.016;-2.260;2022-07-30T02:26:18;17.00;99.90
44671;DHT22;48397;53.016;-2.260;2022-07-30T02:28:50;17.00;99.90
44671;DHT22;48397;53.016;-2.260;2022-07-30T02:31:21;17.00;99.90
44671;DHT22;48397;53.016;-2.260;2022-07-30T02:33:55;17.10;99.90
44671;DHT22;48397;53.016;-2.260;2022-07-30T02:36:26;17.00;99.90
44671;DHT22;48397;53.016;-2.260;2022-07-30T02:38:55;17.00;99.90
44671;DHT22;48397;53.016;-2.260;2022-07-30T02:41:27;17.00;99.90
44671;DHT22;48397;53.016;-2.260;2022-07-30T02:43:58;17.00;99.90
44671;DHT22;48397;53.016;-2.260;2022-07-30T02:46:27;17.00;99.90
44671;DHT22;48397;53.016;-2.260;2022-07-30T02:49:15;17.00;99.90
44671;DHT22;48397;53.016;-2.260;2022-07-30T02:51:46;17.00;99.90
44671;DHT22;48397;53.016;-2.260;2022-07-30T02:54:16;17.00;99.90
44671;DHT22;48397;53.016;-2.260;2022-07-30T02:56:49;17.00;99.90
44671;DHT22;48397;53.016;-2.260;2022-07-30T02:59:20;17.00;99.90
44671;DHT22;48397;53.016;-2.260;2022-07-30T03:01:50;17.00;99.90
44671;DHT22;48397;53.016;-2.260;2022-07-30T03:04:20;17.00;99.90
44671;DHT22;48397;53.016;-2.260;2022-07-30T03:06:48;17.00;99.90
44671;DHT22;48397;53.016;-2.260;2022-07-30T03:09:16;17.00;99.90
44671;DHT22;48397;53.016;-2.260;2022-07-30T03:11:46;17.00;99.90
44671;DHT22;48397;53.016;-2.260;2022-07-30T03:16:48;17.00;99.90
44671;DHT22;48397;53.016;-2.260;2022-07-30T03:19:19;17.00;99.90
44671;DHT22;48397;53.016;-2.260;2022-07-30T03:21:51;17.00;99.90
44671;DHT22;48397;53.016;-2.260;2022-07-30T03:24:22;17.00;99.90
44671;DHT22;48397;53.016;-2.260;2022-07-30T03:26:53;17.00;99.90
44671;DHT22;48397;53.016;-2.260;2022-07-30T03:29:23;17.00;99.90
44671;DHT22;48397;53.016;-2.260;2022-07-30T03:31:55;17.10;99.90
44671;DHT22;48397;53.016;-2.260;2022-07-30T03:34:26;17.00;99.90
44671;DHT22;48397;53.016;-2.260;2022-07-30T03:37:28;16.50;99.90
44671;DHT22;48397;53.016;-2.260;2022-07-30T03:39:58;17.00;99.90
44671;DHT22;48397;53.016;-2.260;2022-07-30T03:42:26;17.00;99.90
44671;DHT22;48397;53.016;-2.260;2022-07-30T03:44:55;17.00;99.90
44671;DHT22;48397;53.016;-2.260;2022-07-30T03:47:24;17.00;99.90
44671;DHT22;48397;53.016;-2.260;2022-07-30T03:52:22;17.00;99.90
44671;DHT22;48397;53.016;-2.260;2022-07-30T03:54:50;16.90;99.90
44671;DHT22;48397;53.016;-2.260;2022-07-30T03:57:44;16.90;99.90
44671;DHT22;48397;53.016;-2.260;2022-07-30T04:00:16;16.80;99.90
44671;DHT22;48397;53.016;-2.260;2022-07-30T04:02:49;16.80;99.90
44671;DHT22;48397;53.016;-2.260;2022-07-30T04:05:32;16.80;99.90
44671;DHT22;48397;53.016;-2.260;2022-07-30T04:08:10;16.80;99.90
44671;DHT22;48397;53.016;-2.260;2022-07-30T04:10:38;16.80;99.90
44671;DHT22;48397;53.016;-2.260;2022-07-30T04:13:15;16.80;99.90
44671;DHT22;48397;53.016;-2.260;2022-07-30T04:19:15;16.70;99.90
44671;DHT22;48397;53.016;-2.260;2022-07-30T04:21:47;16.70;99.90
44671;DHT22;48397;53.016;-2.260;2022-07-30T04:24:16;16.70;99.90
44671;DHT22;48397;53.016;-2.260;2022-07-30T04:26:46;16.70;99.90
44671;DHT22;48397;53.016;-2.260;2022-07-30T04:29:16;16.70;99.90
44671;DHT22;48397;53.016;-2.260;2022-07-30T04:31:53;16.70;99.90
44671;DHT22;48397;53.016;-2.260;2022-07-30T04:34:33;16.80;99.90
44671;DHT22;48397;53.016;-2.260;2022-07-30T04:37:04;16.80;99.90
44671;DHT22;48397;53.016;-2.260;2022-07-30T04:39:31;16.70;99.90
44671;DHT22;48397;53.016;-2.260;2022-07-30T04:42:01;16.70;99.90
44671;DHT22;48397;53.016;-2.260;2022-07-30T04:44:38;16.80;99.90
44671;DHT22;48397;53.016;-2.260;2022-07-30T04:47:24;16.80;99.90
44671;DHT22;48397;53.016;-2.260;2022-07-30T04:50:11;16.80;99.90
44671;DHT22;48397;53.016;-2.260;2022-07-30T04:52:41;16.80;99.90
44671;DHT22;48397;53.016;-2.260;2022-07-30T04:55:12;16.80;99.90
44671;DHT22;48397;53.016;-2.260;2022-07-30T04:57:45;16.80;99.90
44671;DHT22;48397;53.016;-2.260;2022-07-30T05:00:15;16.80;99.90
44671;DHT22;48397;53.016;-2.260;2022-07-30T05:02:45;16.80;99.90
44671;DHT22;48397;53.016;-2.260;2022-07-30T05:05:14;16.80;99.90
44671;DHT22;48397;53.016;-2.260;2022-07-30T05:07:46;16.80;99.90
44671;DHT22;48397;53.016;-2.260;2022-07-30T05:10:35;16.90;99.90
44671;DHT22;48397;53.016;-2.260;2022-07-30T05:13:10;16.90;99.90
44671;DHT22;48397;53.016;-2.260;2022-07-30T05:15:41;16.90;99.90
44671;DHT22;48397;53.016;-2.260;2022-07-30T05:18:12;18.90;99.90
44671;DHT22;48397;53.016;-2.260;2022-07-30T05:20:43;16.90;99.90
44671;DHT22;48397;53.016;-2.260;2022-07-30T05:23:32;16.90;99.90
44671;DHT22;48397;53.016;-2.260;2022-07-30T05:26:20;16.90;99.90
44671;DHT22;48397;53.016;-2.260;2022-07-30T05:28:55;16.90;99.90
44671;DHT22;48397;53.016;-2.260;2022-07-30T05:31:49;16.90;99.90
44671;DHT22;48397;53.016;-2.260;2022-07-30T05:34:19;16.90;99.90
44671;DHT22;48397;53.016;-2.260;2022-07-30T05:36:46;17.00;99.90
44671;DHT22;48397;53.016;-2.260;2022-07-30T05:39:17;17.00;99.90
44671;DHT22;48397;53.016;-2.260;2022-07-30T05:42:03;17.00;99.90
44671;DHT22;48397;53.016;-2.260;2022-07-30T05:44:45;17.00;99.90
44671;DHT22;48397;53.016;-2.260;2022-07-30T05:47:13;17.10;99.90
44671;DHT22;48397;53.016;-2.260;2022-07-30T05:49:40;17.10;99.90
44671;DHT22;48397;53.016;-2.260;2022-07-30T05:52:13;17.20;99.90
44671;DHT22;48397;53.016;-2.260;2022-07-30T05:54:42;17.20;99.90
44671;DHT22;48397;53.016;-2.260;2022-07-30T05:57:29;17.20;99.90
44671;DHT22;48397;53.016;-2.260;2022-07-30T05:59:58;17.30;99.90
44671;DHT22;48397;53.016;-2.260;2022-07-30T06:02:43;17.30;99.90
44671;DHT22;48397;53.016;-2.260;2022-07-30T06:05:37;17.10;99.90
44671;DHT22;48397;53.016;-2.260;2022-07-30T06:08:06;17.40;99.90
44671;DHT22;48397;53.016;-2.260;2022-07-30T06:10:34;17.40;99.90
44671;DHT22;48397;53.016;-2.260;2022-07-30T06:13:02;17.40;99.90
44671;DHT22;48397;53.016;-2.260;2022-07-30T06:17:59;17.60;99.90
44671;DHT22;48397;53.016;-2.260;2022-07-30T06:20:52;17.60;99.90
44671;DHT22;48397;53.016;-2.260;2022-07-30T06:23:26;17.60;99.90
44671;DHT22;48397;53.016;-2.260;2022-07-30T06:26:09;17.70;99.90
44671;DHT22;48397;53.016;-2.260;2022-07-30T06:28:37;17.80;99.90
44671;DHT22;48397;53.016;-2.260;2022-07-30T06:31:27;17.80;99.90
44671;DHT22;48397;53.016;-2.260;2022-07-30T06:33:55;17.90;99.90
44671;DHT22;48397;53.016;-2.260;2022-07-30T06:36:25;18.00;99.90
44671;DHT22;48397;53.016;-2.260;2022-07-30T06:41:42;18.10;99.90
44671;DHT22;48397;53.016;-2.260;2022-07-30T06:44:14;18.10;99.90
44671;DHT22;48397;53.016;-2.260;2022-07-30T06:47:01;18.10;99.90
44671;DHT22;48397;53.016;-2.260;2022-07-30T06:49:36;18.20;99.90
44671;DHT22;48397;53.016;-2.260;2022-07-30T06:52:05;18.20;99.90
44671;DHT22;48397;53.016;-2.260;2022-07-30T06:54:33;18.10;99.90
44671;DHT22;48397;53.016;-2.260;2022-07-30T06:59:41;18.20;99.90
44671;DHT22;48397;53.016;-2.260;2022-07-30T07:02:39;18.30;99.90
44671;DHT22;48397;53.016;-2.260;2022-07-30T07:05:12;18.30;99.90
44671;DHT22;48397;53.016;-2.260;2022-07-30T07:07:44;18.40;99.90
44671;DHT22;48397;53.016;-2.260;2022-07-30T07:10:26;18.50;99.90
44671;DHT22;48397;53.016;-2.260;2022-07-30T07:13:03;18.50;99.90
44671;DHT22;48397;53.016;-2.260;2022-07-30T07:15:35;18.50;99.90
44671;DHT22;48397;53.016;-2.260;2022-07-30T07:20:38;18.60;99.90
44671;DHT22;48397;53.016;-2.260;2022-07-30T07:23:08;18.80;99.90
44671;DHT22;48397;53.016;-2.260;2022-07-30T07:25:40;18.80;99.90
44671;DHT22;48397;53.016;-2.260;2022-07-30T07:28:09;18.90;99.90
44671;DHT22;48397;53.016;-2.260;2022-07-30T07:30:42;18.90;99.90
44671;DHT22;48397;53.016;-2.260;2022-07-30T07:33:12;19.00;99.90
44671;DHT22;48397;53.016;-2.260;2022-07-30T07:35:44;19.10;99.90
44671;DHT22;48397;53.016;-2.260;2022-07-30T07:38:29;19.10;99.90
44671;DHT22;48397;53.016;-2.260;2022-07-30T07:40:58;19.20;99.90
44671;DHT22;48397;53.016;-2.260;2022-07-30T07:43:27;19.30;99.90
44671;DHT22;48397;53.016;-2.260;2022-07-30T07:45:58;19.30;99.90
44671;DHT22;48397;53.016;-2.260;2022-07-30T07:48:29;19.40;99.90
44671;DHT22;48397;53.016;-2.260;2022-07-30T07:51:06;19.50;99.90
44671;DHT22;48397;53.016;-2.260;2022-07-30T07:53:37;16.80;99.90
44671;DHT22;48397;53.016;-2.260;2022-07-30T07:56:12;19.60;99.90
44671;DHT22;48397;53.016;-2.260;2022-07-30T07:58:59;19.70;99.90
44671;DHT22;48397;53.016;-2.260;2022-07-30T08:04:22;19.90;99.90
44671;DHT22;48397;53.016;-2.260;2022-07-30T08:07:18;20.00;99.90
44671;DHT22;48397;53.016;-2.260;2022-07-30T08:10:12;20.20;99.90
44671;DHT22;48397;53.016;-2.260;2022-07-30T08:13:01;20.10;99.90
44671;DHT22;48397;53.016;-2.260;2022-07-30T08:15:51;20.30;99.90
44671;DHT22;48397;53.016;-2.260;2022-07-30T08:18:28;20.30;99.90
44671;DHT22;48397;53.016;-2.260;2022-07-30T08:21:18;20.30;99.90
44671;DHT22;48397;53.016;-2.260;2022-07-30T08:23:46;20.50;99.90
44671;DHT22;48397;53.016;-2.260;2022-07-30T08:26:16;20.60;99.90
44671;DHT22;48397;53.016;-2.260;2022-07-30T08:28:44;20.60;99.90
44671;DHT22;48397;53.016;-2.260;2022-07-30T08:31:12;20.60;99.90
44671;DHT22;48397;53.016;-2.260;2022-07-30T08:33:40;20.80;99.90
44671;DHT22;48397;53.016;-2.260;2022-07-30T08:36:08;20.80;99.90
44671;DHT22;48397;53.016;-2.260;2022-07-30T08:38:38;20.70;99.90
44671;DHT22;48397;53.016;-2.260;2022-07-30T08:41:07;20.90;99.90
44671;DHT22;48397;53.016;-2.260;2022-07-30T08:43:36;20.90;99.90
44671;DHT22;48397;53.016;-2.260;2022-07-30T08:46:08;20.90;99.90
44671;DHT22;48397;53.016;-2.260;2022-07-30T08:48:53;20.90;99.90
44671;DHT22;48397;53.016;-2.260;2022-07-30T08:51:22;20.90;99.90
44671;DHT22;48397;53.016;-2.260;2022-07-30T08:54:28;20.90;99.90
44671;DHT22;48397;53.016;-2.260;2022-07-30T08:56:56;20.90;99.90
44671;DHT22;48397;53.016;-2.260;2022-07-30T08:59:25;20.80;99.90
44671;DHT22;48397;53.016;-2.260;2022-07-30T09:02:13;20.80;99.90
44671;DHT22;48397;53.016;-2.260;2022-07-30T09:04:59;20.80;99.90
44671;DHT22;48397;53.016;-2.260;2022-07-30T09:07:27;20.70;99.90
44671;DHT22;48397;53.016;-2.260;2022-07-30T09:13:52;20.60;99.90
44671;DHT22;48397;53.016;-2.260;2022-07-30T09:16:25;20.60;99.90
44671;DHT22;48397;53.016;-2.260;2022-07-30T09:21:26;20.80;99.90
44671;DHT22;48397;53.016;-2.260;2022-07-30T09:24:40;20.90;99.90
44671;DHT22;48397;53.016;-2.260;2022-07-30T09:27:48;21.10;99.90
44671;DHT22;48397;53.016;-2.260;2022-07-30T09:30:48;21.20;99.90
44671;DHT22;48397;53.016;-2.260;2022-07-30T09:33:44;21.30;99.90
44671;DHT22;48397;53.016;-2.260;2022-07-30T09:39:40;21.40;99.90
44671;DHT22;48397;53.016;-2.260;2022-07-30T09:42:27;21.40;99.90
44671;DHT22;48397;53.016;-2.260;2022-07-30T09:45:06;21.40;99.90
44671;DHT22;48397;53.016;-2.260;2022-07-30T09:47:41;21.40;99.90
44671;DHT22;48397;53.016;-2.260;2022-07-30T09:50:11;21.50;99.90
44671;DHT22;48397;53.016;-2.260;2022-07-30T09:53:08;21.50;99.90
44671;DHT22;48397;53.016;-2.260;2022-07-30T09:55:41;21.60;99.90
44671;DHT22;48397;53.016;-2.260;2022-07-30T09:58:11;21.70;99.90
44671;DHT22;48397;53.016;-2.260;2022-07-30T10:00:56;21.70;99.90
44671;DHT22;48397;53.016;-2.260;2022-07-30T10:03:45;21.70;99.90
44671;DHT22;48397;53.016;-2.260;2022-07-30T10:06:53;21.60;99.90
44671;DHT22;48397;53.016;-2.260;2022-07-30T10:09:32;21.60;99.90
44671;DHT22;48397;53.016;-2.260;2022-07-30T10:12:06;21.50;99.90
44671;DHT22;48397;53.016;-2.260;2022-07-30T10:14:43;21.50;99.90
44671;DHT22;48397;53.016;-2.260;2022-07-30T10:17:15;21.50;99.90
44671;DHT22;48397;53.016;-2.260;2022-07-30T10:23:06;21.80;99.90
44671;DHT22;48397;53.016;-2.260;2022-07-30T10:25:38;21.90;99.90
44671;DHT22;48397;53.016;-2.260;2022-07-30T10:28:40;21.90;99.90
44671;DHT22;48397;53.016;-2.260;2022-07-30T10:31:10;22.00;99.90
44671;DHT22;48397;53.016;-2.260;2022-07-30T10:33:58;22.00;99.90
44671;DHT22;48397;53.016;-2.260;2022-07-30T10:36:28;21.90;99.90
44671;DHT22;48397;53.016;-2.260;2022-07-30T10:38:56;21.90;99.90
44671;DHT22;48397;53.016;-2.260;2022-07-30T10:47:17;21.70;99.90
44671;DHT22;48397;53.016;-2.260;2022-07-30T10:50:08;21.50;99.90
44671;DHT22;48397;53.016;-2.260;2022-07-30T10:52:46;21.40;99.90
44671;DHT22;48397;53.016;-2.260;2022-07-30T10:55:21;21.30;99.90
44671;DHT22;48397;53.016;-2.260;2022-07-30T11:03:30;20.90;99.90
44671;DHT22;48397;53.016;-2.260;2022-07-30T11:08:43;20.90;99.90
44671;DHT22;48397;53.016;-2.260;2022-07-30T11:14:09;21.00;99.90
44671;DHT22;48397;53.016;-2.260;2022-07-30T11:19:10;21.40;99.90
44671;DHT22;48397;53.016;-2.260;2022-07-30T11:22:28;21.60;99.90
44671;DHT22;48397;53.016;-2.260;2022-07-30T11:28:38;21.90;99.90
44671;DHT22;48397;53.016;-2.260;2022-07-30T11:31:30;21.90;99.90
44671;DHT22;48397;53.016;-2.260;2022-07-30T11:37:11;21.70;99.90
44671;DHT22;48397;53.016;-2.260;2022-07-30T11:42:37;21.80;99.90
44671;DHT22;48397;53.016;-2.260;2022-07-30T11:47:46;21.80;99.90
44671;DHT22;48397;53.016;-2.260;2022-07-30T11:50:22;21.80;99.90
44671;DHT22;48397;53.016;-2.260;2022-07-30T11:53:13;21.90;99.90
44671;DHT22;48397;53.016;-2.260;2022-07-30T11:55:42;21.90;99.90
44671;DHT22;48397;53.016;-2.260;2022-07-30T11:58:25;22.00;99.90
44671;DHT22;48397;53.016;-2.260;2022-07-30T12:00:55;22.10;99.90
44671;DHT22;48397;53.016;-2.260;2022-07-30T12:03:26;22.30;99.90
44671;DHT22;48397;53.016;-2.260;2022-07-30T12:06:11;22.30;99.90
44671;DHT22;48397;53.016;-2.260;2022-07-30T12:08:51;22.40;99.90
44671;DHT22;48397;53.016;-2.260;2022-07-30T12:11:31;22.50;99.90
44671;DHT22;48397;53.016;-2.260;2022-07-30T12:14:00;22.40;99.90
44671;DHT22;48397;53.016;-2.260;2022-07-30T12:16:29;22.20;99.90
44671;DHT22;48397;53.016;-2.260;2022-07-30T12:19:04;21.80;99.90
44671;DHT22;48397;53.016;-2.260;2022-07-30T12:21:33;21.70;99.90
44671;DHT22;48397;53.016;-2.260;2022-07-30T12:24:05;21.60;99.90
44671;DHT22;48397;53.016;-2.260;2022-07-30T12:26:36;21.60;99.90
44671;DHT22;48397;53.016;-2.260;2022-07-30T12:29:06;21.80;99.90
44671;DHT22;48397;53.016;-2.260;2022-07-30T12:31:36;21.90;99.90
44671;DHT22;48397;53.016;-2.260;2022-07-30T12:34:24;22.10;99.90
44671;DHT22;48397;53.016;-2.260;2022-07-30T12:36:53;22.20;99.90
44671;DHT22;48397;53.016;-2.260;2022-07-30T12:39:23;22.20;99.90
44671;DHT22;48397;53.016;-2.260;2022-07-30T12:41:53;22.30;99.90
44671;DHT22;48397;53.016;-2.260;2022-07-30T12:44:40;22.70;99.90
44671;DHT22;48397;53.016;-2.260;2022-07-30T12:47:20;22.80;99.90
44671;DHT22;48397;53.016;-2.260;2022-07-30T12:49:52;22.70;99.90
44671;DHT22;48397;53.016;-2.260;2022-07-30T12:52:34;22.80;99.90
44671;DHT22;48397;53.016;-2.260;2022-07-30T12:57:53;23.20;99.90
44671;DHT22;48397;53.016;-2.260;2022-07-30T13:00:24;23.20;99.90
44671;DHT22;48397;53.016;-2.260;2022-07-30T13:02:52;23.20;99.90
44671;DHT22;48397;53.016;-2.260;2022-07-30T13:05:58;23.30;99.90
44671;DHT22;48397;53.016;-2.260;2022-07-30T13:08:56;23.60;99.90
44671;DHT22;48397;53.016;-2.260;2022-07-30T13:11:35;23.90;99.90
44671;DHT22;48397;53.016;-2.260;2022-07-30T13:14:04;24.50;99.90
44671;DHT22;48397;53.016;-2.260;2022-07-30T13:16:34;24.60;99.90
44671;DHT22;48397;53.016;-2.260;2022-07-30T13:19:03;24.90;99.90
44671;DHT22;48397;53.016;-2.260;2022-07-30T13:21:33;25.00;99.90
44671;DHT22;48397;53.016;-2.260;2022-07-30T13:24:01;25.00;99.90
44671;DHT22;48397;53.016;-2.260;2022-07-30T13:26:30;24.80;99.90
44671;DHT22;48397;53.016;-2.260;2022-07-30T13:29:00;24.40;99.90
44671;DHT22;48397;53.016;-2.260;2022-07-30T13:34:36;24.20;99.90
44671;DHT22;48397;53.016;-2.260;2022-07-30T13:39:39;23.60;99.90
44671;DHT22;48397;53.016;-2.260;2022-07-30T13:42:10;23.30;99.90
44671;DHT22;48397;53.016;-2.260;2022-07-30T13:44:37;23.00;99.90
44671;DHT22;48397;53.016;-2.260;2022-07-30T13:47:05;23.00;99.90
44671;DHT22;48397;53.016;-2.260;2022-07-30T13:49:35;22.60;99.90
44671;DHT22;48397;53.016;-2.260;2022-07-30T13:52:05;22.40;99.90
44671;DHT22;48397;53.016;-2.260;2022-07-30T13:54:33;22.40;99.90
44671;DHT22;48397;53.016;-2.260;2022-07-30T13:57:00;22.30;99.90
44671;DHT22;48397;53.016;-2.260;2022-07-30T13:59:29;22.30;99.90
44671;DHT22;48397;53.016;-2.260;2022-07-30T14:01:56;22.20;99.90
44671;DHT22;48397;53.016;-2.260;2022-07-30T14:04:24;22.30;99.90
44671;DHT22;48397;53.016;-2.260;2022-07-30T14:06:52;22.20;99.90
44671;DHT22;48397;53.016;-2.260;2022-07-30T14:09:20;22.20;99.90
44671;DHT22;48397;53.016;-2.260;2022-07-30T14:11:48;22.30;99.90
44671;DHT22;48397;53.016;-2.260;2022-07-30T14:14:16;20.80;99.90
44671;DHT22;48397;53.016;-2.260;2022-07-30T14:16:44;22.50;99.90
44671;DHT22;48397;53.016;-2.260;2022-07-30T14:19:13;22.90;99.90
44671;DHT22;48397;53.016;-2.260;2022-07-30T14:21:51;22.90;99.90
44671;DHT22;48397;53.016;-2.260;2022-07-30T14:24:21;23.00;99.90
44671;DHT22;48397;53.016;-2.260;2022-07-30T14:26:50;22.90;99.90
44671;DHT22;48397;53.016;-2.260;2022-07-30T14:29:25;21.60;99.90
44671;DHT22;48397;53.016;-2.260;2022-07-30T14:31:54;22.70;99.90
44671;DHT22;48397;53.016;-2.260;2022-07-30T14:34:22;22.40;99.90
44671;DHT22;48397;53.016;-2.260;2022-07-30T14:36:50;22.30;99.90
44671;DHT22;48397;53.016;-2.260;2022-07-30T14:39:18;22.20;99.90
44671;DHT22;48397;53.016;-2.260;2022-07-30T14:49:23;21.50;99.90
44671;DHT22;48397;53.016;-2.260;2022-07-30T14:51:52;21.40;99.90
44671;DHT22;48397;53.016;-2.260;2022-07-30T14:54:19;21.40;99.90
44671;DHT22;48397;53.016;-2.260;2022-07-30T14:56:47;21.50;99.90
44671;DHT22;48397;53.016;-2.260;2022-07-30T14:59:18;21.60;99.90
44671;DHT22;48397;53.016;-2.260;2022-07-30T15:01:45;21.60;99.90
44671;DHT22;48397;53.016;-2.260;2022-07-30T15:06:43;21.90;99.90
44671;DHT22;48397;53.016;-2.260;2022-07-30T15:09:11;22.00;99.90
44671;DHT22;48397;53.016;-2.260;2022-07-30T15:11:39;22.00;99.90
44671;DHT22;48397;53.016;-2.260;2022-07-30T15:14:30;21.90;99.90
44671;DHT22;48397;53.016;-2.260;2022-07-30T15:16:58;22.00;99.90
44671;DHT22;48397;53.016;-2.260;2022-07-30T15:19:31;22.00;99.90
44671;DHT22;48397;53.016;-2.260;2022-07-30T15:21:59;21.90;99.90
44671;DHT22;48397;53.016;-2.260;2022-07-30T15:24:30;22.00;99.90
44671;DHT22;48397;53.016;-2.260;2022-07-30T15:26:58;21.90;99.90
44671;DHT22;48397;53.016;-2.260;2022-07-30T15:29:26;21.90;99.90
44671;DHT22;48397;53.016;-2.260;2022-07-30T15:31:58;21.80;99.90
44671;DHT22;48397;53.016;-2.260;2022-07-30T15:34:28;21.70;99.90
44671;DHT22;48397;53.016;-2.260;2022-07-30T15:37:01;21.80;99.90
44671;DHT22;48397;53.016;-2.260;2022-07-30T15:39:29;21.70;99.90
44671;DHT22;48397;53.016;-2.260;2022-07-30T15:42:00;22.50;99.90
44671;DHT22;48397;53.016;-2.260;2022-07-30T15:44:29;22.50;99.90
44671;DHT22;48397;53.016;-2.260;2022-07-30T15:46:58;22.60;99.90
44671;DHT22;48397;53.016;-2.260;2022-07-30T15:49:26;22.50;99.90
44671;DHT22;48397;53.016;-2.260;2022-07-30T15:51:54;22.40;99.90
44671;DHT22;48397;53.016;-2.260;2022-07-30T15:54:23;22.20;99.90
44671;DHT22;48397;53.016;-2.260;2022-07-30T15:56:52;22.20;99.90
44671;DHT22;48397;53.016;-2.260;2022-07-30T16:01:57;22.10;99.90
44671;DHT22;48397;53.016;-2.260;2022-07-30T16:04:24;22.10;99.90
44671;DHT22;48397;53.016;-2.260;2022-07-30T16:07:00;22.10;99.90
44671;DHT22;48397;53.016;-2.260;2022-07-30T16:09:29;22.20;99.90
44671;DHT22;48397;53.016;-2.260;2022-07-30T16:11:57;22.20;99.90
44671;DHT22;48397;53.016;-2.260;2022-07-30T16:14:25;21.80;99.90
44671;DHT22;48397;53.016;-2.260;2022-07-30T16:17:09;21.60;99.90
44671;DHT22;48397;53.016;-2.260;2022-07-30T16:20:28;21.50;99.90
44671;DHT22;48397;53.016;-2.260;2022-07-30T16:23:04;21.40;99.90
44671;DHT22;48397;53.016;-2.260;2022-07-30T16:28:06;21.10;99.90
44671;DHT22;48397;53.016;-2.260;2022-07-30T16:30:34;21.00;99.90
44671;DHT22;48397;53.016;-2.260;2022-07-30T16:39:51;20.90;99.90
44671;DHT22;48397;53.016;-2.260;2022-07-30T16:42:18;20.90;99.90
44671;DHT22;48397;53.016;-2.260;2022-07-30T16:44:48;20.90;99.90
44671;DHT22;48397;53.016;-2.260;2022-07-30T16:47:16;20.90;99.90
44671;DHT22;48397;53.016;-2.260;2022-07-30T16:49:44;20.90;99.90
44671;DHT22;48397;53.016;-2.260;2022-07-30T16:52:11;20.80;99.90
44671;DHT22;48397;53.016;-2.260;2022-07-30T16:54:39;20.80;99.90
44671;DHT22;48397;53.016;-2.260;2022-07-30T16:57:07;20.80;99.90
44671;DHT22;48397;53.016;-2.260;2022-07-30T16:59:37;20.80;99.90
44671;DHT22;48397;53.016;-2.260;2022-07-30T17:04:38;20.90;99.90
44671;DHT22;48397;53.016;-2.260;2022-07-30T17:07:07;20.80;99.90
44671;DHT22;48397;53.016;-2.260;2022-07-30T17:09:35;20.80;99.90
44671;DHT22;48397;53.016;-2.260;2022-07-30T17:12:04;20.80;99.90
44671;DHT22;48397;53.016;-2.260;2022-07-30T17:14:41;20.90;99.90
44671;DHT22;48397;53.016;-2.260;2022-07-30T17:17:09;21.00;99.90
44671;DHT22;48397;53.016;-2.260;2022-07-30T17:19:41;21.10;99.90
44671;DHT22;48397;53.016;-2.260;2022-07-30T17:22:10;21.10;99.90
44671;DHT22;48397;53.016;-2.260;2022-07-30T17:29:34;21.10;99.90
44671;DHT22;48397;53.016;-2.260;2022-07-30T17:34:51;21.30;99.90
44671;DHT22;48397;53.016;-2.260;2022-07-30T17:37:20;21.40;99.90
44671;DHT22;48397;53.016;-2.260;2022-07-30T17:39:48;21.40;99.90
44671;DHT22;48397;53.016;-2.260;2022-07-30T17:42:38;21.40;99.90
44671;DHT22;48397;53.016;-2.260;2022-07-30T17:45:06;21.40;99.90
44671;DHT22;48397;53.016;-2.260;2022-07-30T17:47:36;21.30;99.90
44671;DHT22;48397;53.016;-2.260;2022-07-30T17:50:09;21.20;99.90
44671;DHT22;48397;53.016;-2.260;2022-07-30T17:52:38;21.20;99.90
44671;DHT22;48397;53.016;-2.260;2022-07-30T17:55:07;21.10;99.90
44671;DHT22;48397;53.016;-2.260;2022-07-30T17:57:38;21.00;99.90